Flight Track Log - Related Links

Times and Time Zones

All times are in EDT time to prevent confusion due to time zone crossing. See the LXJ537 flight status page for this flight to view local times or setup timezone preferences in your user account.

Time Position Orientation Groundspeed Altitude Reporting Facility
EDT Latitude Longitude Course Direction KTS MPH feet Rate Location/Type
Mon 11:18:13 AM 47.4722 -122.2111 145° Southeast 157 181 1,400  Level Seattle Center
Mon 11:18:39 AM 47.4575 -122.1961 145° Southeast 168 193 2,300 1,517 Climbing Seattle Center
Mon 11:19:40 AM 47.4081 -122.1636 156° South 202 232 3,600 1,279 Climbing Seattle Center
Mon 11:20:41 AM 47.3517 -122.1542 174° South 205 236 4,900 2,607 Climbing Seattle Center
Mon 11:21:42 AM 47.2886 -122.1428 173° South 227 261 8,900 3,868 Climbing Seattle Center
Mon 11:22:42 AM 47.2111 -122.1256 171° South 291 335 12,700 4,215 Climbing Seattle Center
Mon 11:23:43 AM 47.1050 -122.1147 176° South 324 373 17,400 4,131 Climbing Seattle Center
Mon 11:24:44 AM 47.0119 -122.1400 190° South 344 396 21,100 3,738 Climbing Seattle Center
Mon 11:25:45 AM 46.9158 -122.1519 185° South 350 403 25,000 3,492 Climbing Seattle Center
Mon 11:26:46 AM 46.8156 -122.1453 177° South 362 417 28,200 2,380 Climbing Seattle Center
Mon 11:27:46 AM 46.7061 -122.1378 177° South 396 456 29,800 1,686 Climbing Seattle Center
Mon 11:28:47 AM 46.5872 -122.1275 177° South 428 493 31,600 1,623 Climbing Seattle Center
Mon 11:29:48 AM 46.4614 -122.1178 177° South 453 521 33,100 1,475 Climbing Seattle Center
Mon 11:30:49 AM 46.3297 -122.1069 177° South 475 547 34,600 1,537 Climbing Seattle Center
Mon 11:31:49 AM 46.1803 -122.0944 177° South 485 558 36,200 1,438 Climbing Seattle Center
Mon 11:32:50 AM 46.0419 -122.0847 177° South 494 568 37,500 1,279 Climbing Seattle Center
Mon 11:33:51 AM 45.9025 -122.0731 177° South 500 575 38,800 1,525 Climbing Seattle Center
Mon 11:34:52 AM 45.7672 -122.0611 176° South 495 570 40,600 1,525 Climbing Seattle Center
Mon 11:35:53 AM 45.6358 -122.0500 177° South 485 558 41,900 1,033 Climbing Seattle Center
Mon 11:36:54 AM 45.5086 -122.0419 177° South 474 545 42,700 645 Climbing Seattle Center
Mon 11:37:54 AM 45.3803 -122.0317 177° South 466 536 43,200 496 Climbing Seattle Center
Mon 11:38:55 AM 45.2508 -122.0211 177° South 465 535 43,700 492 Climbing Seattle Center
Mon 11:39:56 AM 45.1181 -122.0117 177° South 470 541 44,200 492 Climbing Seattle Center
Mon 11:40:57 AM 44.9856 -122.0017 177° South 475 547 44,700 393 Climbing Seattle Center
Mon 11:41:58 AM 44.8575 -121.9894 176° South 464 534 45,000 148 Climbing Seattle Center
Mon 11:42:59 AM 44.7319 -121.9806 177° South 453 521 45,000  Level Seattle Center
Mon 11:44:00 AM 44.6017 -121.9708 177° South 459 528 45,000  Level Seattle Center
Mon 11:45:00 AM 44.4436 -121.9586 177° South 468 539 45,000  Level Seattle Center
Mon 11:46:01 AM 44.3122 -121.9489 177° South 470 541 45,000  Level Seattle Center
Mon 11:47:02 AM 44.1814 -121.9394 177° South 469 540 45,000  Level Seattle Center
Mon 11:48:03 AM 44.0508 -121.9289 177° South 469 540 45,000  Level Seattle Center
Mon 11:49:04 AM 43.9172 -121.9197 177° South 473 544 45,000  Level Seattle Center
Mon 11:50:05 AM 43.7833 -121.9111 177° South 479 551 45,000  Level Seattle Center
Mon 11:51:05 AM 43.6497 -121.9028 177° South 477 549 45,000  Level Seattle Center
Mon 11:52:06 AM 43.5172 -121.8919 177° South 475 547 45,000  Level Seattle Center
Mon 11:53:07 AM 43.3856 -121.8833 177° South 471 542 45,000  Level Seattle Center
Mon 11:54:08 AM 43.2542 -121.8731 177° South 467 537 45,000  Level Seattle Center
Mon 11:55:09 AM 43.1233 -121.8594 176° South 469 540 45,000  Level Seattle Center
Mon 11:56:10 AM 42.9928 -121.8553 179° South 469 540 45,000  Level Seattle Center
Mon 11:57:11 AM 42.8617 -121.8478 178° South 471 542 45,000  Level Seattle Center
Mon 11:58:11 AM 42.7339 -121.8364 176° South 463 533 45,000  Level Seattle Center
Mon 11:59:12 AM 42.6042 -121.8272 177° South 465 535 45,000  Level Seattle Center
Mon 12:00:13 PM 42.4731 -121.8178 177° South 468 539 45,000  Level Seattle Center
Mon 12:01:14 PM 42.3428 -121.8083 177° South 467 537 45,000  Level Seattle Center
Mon 12:02:15 PM 42.2108 -121.7975 177° South 469 540 45,000  Level Seattle Center
Mon 12:03:16 PM 42.0756 -121.7892 177° South 470 541 45,000  Level Seattle Center
Mon 12:04:17 PM 41.9422 -121.7814 178° South 466 536 45,000  Level Seattle Center
Mon 12:05:17 PM 41.8119 -121.7719 177° South 464 534 45,000  Level Seattle Center
Mon 12:06:18 PM 41.6825 -121.7628 177° South 464 534 45,000  Level Seattle Center
Mon 12:07:19 PM 41.5511 -121.7536 177° South 471 542 45,000  Level Seattle Center
Mon 12:08:20 PM 41.4206 -121.7450 177° South 470 541 45,000  Level Seattle Center
Mon 12:09:21 PM 41.2925 -121.7364 177° South 462 532 45,000  Level Seattle Center
Mon 12:10:22 PM 41.1650 -121.7272 177° South 459 528 45,000  Level Seattle Center
Mon 12:11:23 PM 41.0381 -121.7203 178° South 457 526 45,000  Level Seattle Center
Mon 12:12:30 PM 40.8786 -121.7056 176° South 458 527 45,000 -188 Level Oakland Center
Mon 12:13:31 PM 40.7503 -121.6989 178° South 461 531 44,600 -1,415 Descending Oakland Center
Mon 12:14:33 PM 40.6200 -121.6900 177° South 466 536 42,100 -2,488 Descending Oakland Center
Mon 12:15:34 PM 40.4897 -121.6808 177° South 465 535 39,500 -2,488 Descending Oakland Center
Mon 12:16:36 PM 40.3547 -121.6719 177° South 480 552 37,000 -2,537 Descending Oakland Center
Mon 12:17:37 PM 40.2175 -121.6628 177° South 488 562 34,300 -2,557 Descending Oakland Center
Mon 12:18:38 PM 40.0817 -121.6550 177° South 484 557 31,800 -2,488 Descending Oakland Center
Mon 12:19:40 PM 39.9481 -121.6453 177° South 479 551 29,200 -2,683 Descending Oakland Center
Mon 12:20:41 PM 39.7967 -121.6811 190° South 461 531 26,300 -2,488 Descending Oakland Center
Mon 12:21:43 PM 39.6756 -121.7183 193° South 449 517 24,100 -2,195 Descending Oakland Center
Mon 12:22:44 PM 39.5578 -121.7386 188° South 430 495 21,800 -2,049 Descending Oakland Center
Mon 12:23:46 PM 39.4436 -121.7153 171° South 422 486 19,900 -1,854 Descending Oakland Center
Mon 12:24:47 PM 39.3281 -121.6867 169° South 422 486 18,000 -1,820 Descending Oakland Center
Mon 12:25:48 PM 39.2156 -121.6689 173° South 410 472 16,200 -1,854 Descending Oakland Center
Mon 12:26:50 PM 39.1036 -121.6589 176° South 403 464 14,200 -2,000 Descending Oakland Center
Mon 12:27:51 PM 38.9961 -121.6475 175° South 388 447 12,100 -1,869 Descending Oakland Center
Mon 12:28:52 PM 38.8933 -121.6394 177° South 372 428 10,400 -1,024 Descending Oakland Center
Mon 12:29:54 PM 38.7806 -121.6647 190° South 346 398 10,000 -1,024 Descending Oakland Center
Mon 12:30:55 PM 38.6964 -121.6664 181° South 308 354 8,300 -1,659 Descending Oakland Center
Mon 12:31:57 PM 38.6158 -121.6492 171° South 294 338 6,600 -878 Descending Oakland Center
Mon 12:32:58 PM 38.5386 -121.6347 172° South 283 326 6,500 -639 Descending Oakland Center
Mon 12:33:59 PM 38.4706 -121.5953 156° South 288 331 5,300 -1,729 Descending Oakland Center
Mon 12:34:56 PM 38.4333 -121.5333 127° Southeast 215 247 3,100 -2,000 Descending Northern Cal TRACON
Mon 12:35:56 PM 38.4667 -121.5167 21° North 141 162 1,400 -1,429 Descending Northern Cal TRACON
Mon 12:37:02 PM 38.5000 -121.5000 21° North 132 152 100 -1,182 Descending Northern Cal TRACON

Login

Don't have an account? Register now (free) for customized features, flight alerts, and more!